Archival Weather

Snohomish County (Paine Fld)

Everett, Washington (KPAE)

Report from: Sunday, November 5, 2023 11:53 AM PST
Current time: Friday, June 21, 2024 1:44 AM PDT

Current weather – Weather history – Daily summaries
Weather forecast

Temperature13.3°C (55.9°F)
Dew point6.7°C (44.1°F)
Winds 5 kts (2.6 m/s, 5.8 mph) Southeast (140°)
Visibility10 mi. (16.1 km)
Clouds Scattered clouds 6,000 ft. (1,829 m)
Altimeter29.83 in.Hg (1010 mB)
Relative humidity64 %
Density altitude54 ft. (16 m)
Sea-level pressure101.0 kPa (1010 mB, 29.82 in.Hg)
Remarks Automated weather observing station with precipitation discriminator
Flight conditions Visual Meteorological Conditions
Raw dataKPAE 051953Z 14005KT 10SM SCT060 13/07 A2983 RMK AO2 SLP099 T01330067
An error has occurred. This application may no longer respond until reloaded. Reload 🗙